createdAt,value
2018-01-11T00:00:04.008Z,25.13
2018-01-11T00:02:31.575Z,20.07
2018-01-11T00:04:59.100Z,23.70
2018-01-11T00:07:26.657Z,21.47
2018-01-11T00:09:54.988Z,23.77
2018-01-11T00:12:22.549Z,22.63
2018-01-11T00:14:50.102Z,17.67
2018-01-11T00:17:17.670Z,21.70
2018-01-11T00:19:45.218Z,18.13
2018-01-11T00:22:12.749Z,30.57
2018-01-11T00:24:40.313Z,31.73
2018-01-11T00:27:07.872Z,27.13
2018-01-11T00:29:35.397Z,27.83
2018-01-11T00:32:02.963Z,26.03
2018-01-11T00:34:30.525Z,24.57
2018-01-11T00:36:58.809Z,26.90
2018-01-11T00:39:26.366Z,37.30
2018-01-11T00:41:54.716Z,37.17
2018-01-11T00:44:22.250Z,28.77
2018-01-11T00:46:49.818Z,27.33
2018-01-11T00:49:17.345Z,26.30
2018-01-11T00:51:44.906Z,19.83
2018-01-11T00:54:12.431Z,21.90
2018-01-11T00:56:39.996Z,22.97
2018-01-11T00:59:07.517Z,21.40
2018-01-11T01:01:35.074Z,23.63
2018-01-11T01:04:02.593Z,20.47
2018-01-11T01:06:30.157Z,16.33
2018-01-11T01:08:58.150Z,18.80
2018-01-11T01:11:25.705Z,20.33
2018-01-11T01:13:53.275Z,19.77
2018-01-11T01:16:20.793Z,18.00
2018-01-11T01:18:48.352Z,18.70
2018-01-11T01:21:15.883Z,19.97
2018-01-11T01:23:43.443Z,22.13
2018-01-11T01:26:11.050Z,16.57
2018-01-11T01:28:38.618Z,20.87
2018-01-11T01:31:06.179Z,16.03
2018-01-11T01:33:33.721Z,18.60
2018-01-11T01:36:01.259Z,21.27
2018-01-11T01:38:29.578Z,18.90
2018-01-11T01:40:57.142Z,20.80
2018-01-11T01:43:24.725Z,17.03
2018-01-11T01:45:52.288Z,16.53
2018-01-11T01:48:31.536Z,20.67
2018-01-11T01:50:59.112Z,16.93
2018-01-11T01:53:26.639Z,20.43
2018-01-11T01:55:54.199Z,15.97
2018-01-11T01:58:21.730Z,20.53
2018-01-11T02:00:49.294Z,17.33
2018-01-11T02:03:16.821Z,17.60
2018-01-11T02:05:45.188Z,16.93
2018-01-11T02:08:13.471Z,18.53
2018-01-11T02:10:41.014Z,17.80
2018-01-11T02:13:08.579Z,18.03
2018-01-11T02:15:36.100Z,21.30
2018-01-11T02:18:04.020Z,18.80
2018-01-11T02:20:32.729Z,17.03
2018-01-11T02:23:00.364Z,16.87
2018-01-11T02:25:28.284Z,17.57
2018-01-11T02:27:55.959Z,17.27
2018-01-11T02:30:23.853Z,15.67
2018-01-11T02:32:51.381Z,15.27
2018-01-11T02:35:19.712Z,16.67
2018-01-11T02:37:47.241Z,18.67
2018-01-11T02:40:14.780Z,20.67
2018-01-11T02:42:42.329Z,17.20
2018-01-11T02:45:09.853Z,21.80
2018-01-11T02:47:37.414Z,24.30
2018-01-11T02:50:04.974Z,18.87
2018-01-11T02:52:32.507Z,18.23
2018-01-11T02:55:00.043Z,24.57
2018-01-11T02:57:27.642Z,19.70
2018-01-11T02:59:55.942Z,23.20
2018-01-11T03:02:23.469Z,20.77
2018-01-11T03:04:51.812Z,19.23
2018-01-11T03:07:19.356Z,21.83
2018-01-11T03:09:46.911Z,20.07
2018-01-11T03:12:14.522Z,19.00
2018-01-11T03:14:42.845Z,22.20
2018-01-11T03:17:10.415Z,17.10
2018-01-11T03:19:37.965Z,19.07
2018-01-11T03:22:05.502Z,16.80
2018-01-11T03:24:33.065Z,20.17
2018-01-11T03:27:00.621Z,19.13
2018-01-11T03:29:28.137Z,17.87
2018-01-11T03:34:37.437Z,20.57
2018-01-11T03:37:05.005Z,16.83
2018-01-11T03:39:32.530Z,16.33
2018-01-11T03:42:00.826Z,19.30
2018-01-11T03:44:28.382Z,15.17
2018-01-11T03:46:56.670Z,20.63
2018-01-11T03:49:24.213Z,17.67
2018-01-11T03:51:52.535Z,15.70
2018-01-11T03:54:20.090Z,14.00
2018-01-11T03:56:47.625Z,15.63
2018-01-11T03:59:15.178Z,19.60
2018-01-11T04:01:42.718Z,13.83
2018-01-11T04:04:11.046Z,13.30
2018-01-11T04:06:38.864Z,14.87
2018-01-11T04:09:06.482Z,14.83
2018-01-11T04:11:34.014Z,20.57
2018-01-11T04:14:01.566Z,15.13
2018-01-11T04:16:29.126Z,19.07
2018-01-11T04:18:56.647Z,17.83
2018-01-11T04:21:24.264Z,16.53
2018-01-11T04:23:51.789Z,14.53
2018-01-11T04:26:19.354Z,15.57
2018-01-11T04:28:46.939Z,13.27
2018-01-11T04:31:14.588Z,19.43
2018-01-11T04:33:42.124Z,17.37
2018-01-11T04:36:10.456Z,17.30
2018-01-11T04:38:37.973Z,19.13
2018-01-11T04:41:06.343Z,19.40
2018-01-11T04:43:34.638Z,18.83
2018-01-11T04:46:02.244Z,17.60
2018-01-11T04:48:29.815Z,21.37
2018-01-11T04:50:57.334Z,19.83
2018-01-11T04:53:24.885Z,15.97
2018-01-11T04:55:52.430Z,14.83
2018-01-11T04:58:19.961Z,17.83
2018-01-11T05:00:52.413Z,19.67
2018-01-11T05:03:19.941Z,17.40
2018-01-11T05:05:47.524Z,19.50
2018-01-11T05:08:15.086Z,21.60
2018-01-11T05:10:42.622Z,23.40
2018-01-11T05:13:10.188Z,21.00
2018-01-11T05:15:37.719Z,20.03
2018-01-11T05:18:05.256Z,18.97
2018-01-11T05:20:33.584Z,21.20
2018-01-11T05:23:01.112Z,18.67
2018-01-11T05:25:29.445Z,19.50
2018-01-11T05:27:57.008Z,17.27
2018-01-11T05:30:24.530Z,17.83
2018-01-11T05:32:52.090Z,25.33
2018-01-11T05:35:19.658Z,20.93
2018-01-11T05:37:47.273Z,20.87
2018-01-11T05:40:14.820Z,27.40
2018-01-11T05:42:42.344Z,19.60
2018-01-11T05:45:09.918Z,18.30
2018-01-11T05:47:37.449Z,21.27
2018-01-11T05:50:05.007Z,28.47
2018-01-11T05:52:32.568Z,27.23
2018-01-11T05:55:00.116Z,22.37
2018-01-11T05:57:27.690Z,21.80
2018-01-11T05:59:55.249Z,24.83
2018-01-11T06:02:22.760Z,19.67
2018-01-11T06:04:50.327Z,19.13
2018-01-11T06:07:17.917Z,21.87
2018-01-11T06:09:45.437Z,13.67
2018-01-11T06:12:13.005Z,16.10
2018-01-11T06:14:40.529Z,15.87
2018-01-11T06:17:08.094Z,15.80
2018-01-11T06:19:35.672Z,19.30
2018-01-11T06:22:04.021Z,20.47
2018-01-11T06:24:31.540Z,18.53
2018-01-11T06:26:59.866Z,16.17
2018-01-11T06:29:27.492Z,16.47
2018-01-11T06:31:55.078Z,19.03
2018-01-11T06:34:22.604Z,22.07
2018-01-11T06:36:50.156Z,19.87
2018-01-11T06:39:17.886Z,19.23
2018-01-11T06:41:45.451Z,25.70
2018-01-11T06:44:13.009Z,23.83
2018-01-11T06:46:40.569Z,24.20
2018-01-11T06:49:08.125Z,16.97
2018-01-11T06:51:35.652Z,19.03
2018-01-11T06:54:03.213Z,22.00
2018-01-11T06:56:30.780Z,20.37
2018-01-11T06:58:58.341Z,24.50
2018-01-11T07:01:25.886Z,25.87
2018-01-11T07:03:53.447Z,21.80
2018-01-11T07:06:21.009Z,26.63
2018-01-11T07:08:48.529Z,19.23
2018-01-11T07:11:16.815Z,20.53
2018-01-11T07:13:44.376Z,17.50
2018-01-11T07:16:12.694Z,18.63
2018-01-11T07:18:40.267Z,16.20
2018-01-11T07:21:07.860Z,18.73
2018-01-11T07:23:35.401Z,17.20
2018-01-11T07:26:02.918Z,21.73
2018-01-11T07:28:30.504Z,22.20
2018-01-11T07:30:58.069Z,18.17
2018-01-11T07:33:25.593Z,17.40
2018-01-11T07:35:53.157Z,21.77
2018-01-11T07:38:20.693Z,19.57
2018-01-11T07:40:48.479Z,17.47
2018-01-11T07:43:16.054Z,20.87
2018-01-11T07:45:43.584Z,21.37
2018-01-11T07:48:11.156Z,19.53
2018-01-11T07:50:38.939Z,18.60
2018-01-11T07:53:06.504Z,22.73
2018-01-11T07:55:34.059Z,24.00
2018-01-11T07:58:01.624Z,20.87
2018-01-11T08:00:29.347Z,25.70
2018-01-11T08:02:57.132Z,19.00
2018-01-11T08:05:24.694Z,18.63
2018-01-11T08:07:52.276Z,18.47
2018-01-11T08:10:19.858Z,26.93
2018-01-11T08:12:47.674Z,26.10
2018-01-11T08:15:15.212Z,19.23
2018-01-11T08:17:42.778Z,17.27
2018-01-11T08:20:10.432Z,26.47
2018-01-11T08:22:37.993Z,17.63
2018-01-11T08:25:05.601Z,20.40
2018-01-11T08:27:33.191Z,17.67
2018-01-11T08:30:00.776Z,19.43
2018-01-11T08:32:28.450Z,25.37
2018-01-11T08:34:56.177Z,21.73
2018-01-11T08:37:23.761Z,24.53
2018-01-11T08:39:52.056Z,24.07
2018-01-11T08:42:19.860Z,21.13
2018-01-11T08:44:47.394Z,15.53
2018-01-11T08:47:15.029Z,24.07
2018-01-11T08:49:42.567Z,18.70
2018-01-11T08:52:10.863Z,17.20
2018-01-11T08:54:38.517Z,22.27
2018-01-11T08:57:06.076Z,21.60
2018-01-11T08:59:33.637Z,26.43
2018-01-11T09:02:01.926Z,21.63
2018-01-11T09:04:29.529Z,23.30
2018-01-11T09:06:57.057Z,16.77
2018-01-11T09:09:24.647Z,22.07
2018-01-11T09:11:52.421Z,19.90
2018-01-11T09:14:19.946Z,20.20
2018-01-11T09:16:47.584Z,16.33
2018-01-11T09:19:15.139Z,18.07
2018-01-11T09:21:43.533Z,13.77
2018-01-11T09:24:11.085Z,16.20
2018-01-11T09:26:38.684Z,15.80
2018-01-11T09:29:06.265Z,25.60
2018-01-11T09:31:33.920Z,18.17
2018-01-11T09:34:01.483Z,19.23
2018-01-11T09:36:29.019Z,24.73
2018-01-11T09:38:56.676Z,23.47
2018-01-11T09:41:25.002Z,20.00
2018-01-11T09:43:53.354Z,23.07
2018-01-11T09:46:20.906Z,21.97
2018-01-11T09:48:48.485Z,22.47
2018-01-11T09:51:16.049Z,23.93
2018-01-11T09:53:43.734Z,23.40
2018-01-11T09:56:11.284Z,23.47
2018-01-11T09:58:38.921Z,21.17
2018-01-11T10:01:06.466Z,27.57
2018-01-11T10:03:34.002Z,26.37
2018-01-11T10:06:01.573Z,29.10
2018-01-11T10:08:29.097Z,29.10
2018-01-11T10:10:56.673Z,21.83
2018-01-11T10:13:24.361Z,22.93
2018-01-11T10:15:51.962Z,23.13
2018-01-11T10:18:19.529Z,23.83
2018-01-11T10:20:47.160Z,21.47
2018-01-11T10:23:14.948Z,23.10
2018-01-11T10:25:42.532Z,20.00
2018-01-11T10:28:10.122Z,21.93
2018-01-11T10:30:37.697Z,21.63
2018-01-11T10:33:05.317Z,25.23
2018-01-11T10:35:33.606Z,23.00
2018-01-11T10:38:01.224Z,25.83
2018-01-11T10:40:28.761Z,25.20
2018-01-11T10:42:56.390Z,25.67
2018-01-11T10:45:23.914Z,23.33
2018-01-11T10:47:51.498Z,23.60
2018-01-11T10:50:19.086Z,26.10
2018-01-11T10:55:19.165Z,28.40
2018-01-11T11:03:29.370Z,23.10
2018-01-11T11:05:56.950Z,31.93
2018-01-11T11:08:24.497Z,46.80
2018-01-11T11:10:52.070Z,32.53
2018-01-11T11:13:19.593Z,31.33
2018-01-11T11:15:47.961Z,24.70
2018-01-11T11:18:15.496Z,22.73
2018-01-11T11:20:43.130Z,21.23
2018-01-11T11:23:10.655Z,22.80
2018-01-11T11:25:38.204Z,24.10
2018-01-11T11:28:05.786Z,26.57
2018-01-11T11:33:07.523Z,19.67
2018-01-11T11:35:35.887Z,25.53
2018-01-11T11:38:03.519Z,20.90
2018-01-11T11:40:31.154Z,20.07
2018-01-11T11:42:59.827Z,23.17
2018-01-11T11:45:28.218Z,24.80
2018-01-11T11:47:58.137Z,23.80
2018-01-11T11:50:26.524Z,22.27
2018-01-11T11:52:55.171Z,23.57
2018-01-11T11:55:23.533Z,21.20
2018-01-11T11:57:51.151Z,23.97
2018-01-11T12:00:18.731Z,20.13
2018-01-11T12:02:46.323Z,22.20
2018-01-11T12:05:13.925Z,22.87
2018-01-11T12:07:41.550Z,23.40
2018-01-11T12:10:09.139Z,20.87
2018-01-11T12:12:36.752Z,24.93
2018-01-11T12:15:04.307Z,23.50
2018-01-11T12:17:31.933Z,25.13
2018-01-11T12:19:59.529Z,20.77
2018-01-11T12:22:27.087Z,22.17
2018-01-11T12:24:54.754Z,21.03
2018-01-11T12:27:22.306Z,25.27
2018-01-11T12:29:50.095Z,21.53
2018-01-11T12:32:17.678Z,20.50
2018-01-11T12:34:45.344Z,24.70
2018-01-11T12:37:13.728Z,26.43
2018-01-11T12:39:42.291Z,19.17
2018-01-11T12:42:10.290Z,23.27
2018-01-11T12:47:03.611Z,20.20
2018-01-11T12:49:31.212Z,19.33
2018-01-11T12:51:58.855Z,24.43
2018-01-11T12:54:26.407Z,23.40
2018-01-11T12:56:53.984Z,22.67
2018-01-11T12:59:21.512Z,26.60
2018-01-11T13:01:49.327Z,22.20
2018-01-11T13:04:16.982Z,20.77
2018-01-11T13:06:44.611Z,21.30
2018-01-11T13:09:12.175Z,22.33
2018-01-11T13:11:39.747Z,21.17
2018-01-11T13:14:07.372Z,24.20
2018-01-11T13:16:35.228Z,24.87
2018-01-11T13:19:02.820Z,29.07
2018-01-11T13:21:30.347Z,26.50
2018-01-11T13:23:58.000Z,24.33
2018-01-11T13:26:25.604Z,25.87
2018-01-11T13:28:53.136Z,23.77
2018-01-11T13:31:20.722Z,27.50
2018-01-11T13:33:48.244Z,26.30
2018-01-11T13:36:15.826Z,25.20
2018-01-11T13:38:43.382Z,23.77
2018-01-11T13:41:10.989Z,22.57
2018-01-11T13:43:38.696Z,25.50
2018-01-11T13:46:06.257Z,26.20
2018-01-11T13:48:33.819Z,24.83
2018-01-11T13:51:01.349Z,23.43
2018-01-11T13:53:28.890Z,25.67
2018-01-11T13:55:56.471Z,24.37
2018-01-11T13:58:24.011Z,28.63
2018-01-11T14:00:51.602Z,28.60
2018-01-11T14:03:19.126Z,27.00
2018-01-11T14:05:46.731Z,29.13
2018-01-11T14:08:14.283Z,29.27
2018-01-11T14:10:41.870Z,26.07
2018-01-11T14:13:09.450Z,30.07
2018-01-11T14:15:37.024Z,29.93
2018-01-11T14:18:04.548Z,26.77
2018-01-11T14:20:32.168Z,29.80
2018-01-11T14:23:00.461Z,30.13
2018-01-11T14:25:28.035Z,28.07
2018-01-11T14:27:55.660Z,27.27
2018-01-11T14:30:23.192Z,26.97
2018-01-11T14:32:50.708Z,28.17
2018-01-11T14:35:18.714Z,23.83
2018-01-11T14:37:46.227Z,26.23
2018-01-11T14:40:14.542Z,29.03
2018-01-11T14:42:42.059Z,26.40
2018-01-11T14:45:10.471Z,27.20
2018-01-11T14:47:38.010Z,28.97
2018-01-11T14:50:05.597Z,31.03
2018-01-11T14:52:33.125Z,27.33
2018-01-11T14:55:00.728Z,28.57
2018-01-11T14:57:28.546Z,31.60
2018-01-11T14:59:56.080Z,29.00
2018-01-11T15:02:23.637Z,27.33
2018-01-11T15:04:52.285Z,26.63
2018-01-11T15:07:19.804Z,25.90
2018-01-11T15:09:47.364Z,26.83
2018-01-11T15:12:14.970Z,27.20
2018-01-11T15:14:42.523Z,27.37
2018-01-11T15:17:10.098Z,25.43
2018-01-11T15:19:37.618Z,25.33
2018-01-11T15:22:05.206Z,25.60
2018-01-11T15:24:32.766Z,23.13
2018-01-11T15:27:00.323Z,25.80
2018-01-11T15:29:27.842Z,24.47
2018-01-11T15:31:55.437Z,21.93
2018-01-11T15:34:23.356Z,23.87
2018-01-11T15:36:50.980Z,23.23
2018-01-11T15:39:18.565Z,21.93
2018-01-11T15:41:46.084Z,22.07
2018-01-11T15:44:13.661Z,22.60
2018-01-11T15:46:41.195Z,20.60
2018-01-11T15:49:08.801Z,22.20
2018-01-11T15:51:36.329Z,19.40
2018-01-11T15:54:04.136Z,20.00
2018-01-11T15:56:31.667Z,21.47
2018-01-11T15:58:59.255Z,21.60
2018-01-11T16:01:26.814Z,20.53
2018-01-11T16:03:54.344Z,22.43
2018-01-11T16:06:21.896Z,22.50
2018-01-11T16:08:49.427Z,21.70
2018-01-11T16:11:16.995Z,21.90
2018-01-11T16:13:44.532Z,24.10
2018-01-11T16:16:12.091Z,23.60
2018-01-11T16:18:40.367Z,21.57
2018-01-11T16:21:07.923Z,28.43
2018-01-11T16:23:35.523Z,22.63
2018-01-11T16:26:03.853Z,24.47
2018-01-11T16:28:31.379Z,28.73
2018-01-11T16:30:58.935Z,26.23
2018-01-11T16:33:26.500Z,24.87
2018-01-11T16:35:54.064Z,22.93
2018-01-11T16:38:22.341Z,27.17
2018-01-11T16:40:49.902Z,22.53
2018-01-11T16:43:17.455Z,24.57
2018-01-11T16:45:44.968Z,23.93
2018-01-11T16:48:12.475Z,25.30
2018-01-11T16:50:40.063Z,26.10
2018-01-11T16:53:07.626Z,25.63
2018-01-11T16:55:35.187Z,25.97
2018-01-11T16:58:03.501Z,24.17
2018-01-11T17:00:31.024Z,28.37
2018-01-11T17:02:58.562Z,27.20
2018-01-11T17:05:26.082Z,24.97
2018-01-11T17:07:53.712Z,29.93
2018-01-11T17:10:22.006Z,29.73
2018-01-11T17:12:49.560Z,32.50
2018-01-11T17:15:17.112Z,27.67
2018-01-11T17:17:44.664Z,28.67
2018-01-11T17:20:12.192Z,26.77
2018-01-11T17:22:39.800Z,22.10
2018-01-11T17:25:08.087Z,21.03
2018-01-11T17:27:35.630Z,23.57
2018-01-11T17:30:03.196Z,24.87
2018-01-11T17:32:30.718Z,22.13
2018-01-11T17:34:58.280Z,27.00
2018-01-11T17:37:25.837Z,24.97
2018-01-11T17:39:53.372Z,24.67
2018-01-11T17:42:20.941Z,23.27
2018-01-11T17:44:48.497Z,26.03
2018-01-11T17:47:16.027Z,30.60
2018-01-11T17:49:43.576Z,23.67
2018-01-11T17:52:11.127Z,24.40
2018-01-11T17:54:38.643Z,25.00
2018-01-11T17:57:06.310Z,26.93
2018-01-11T17:59:33.832Z,25.63
2018-01-11T18:02:01.376Z,24.00
2018-01-11T18:04:28.926Z,27.83
2018-01-11T18:06:57.216Z,24.80
2018-01-11T18:09:24.803Z,30.33
2018-01-11T18:11:52.330Z,28.17
2018-01-11T18:14:19.931Z,25.70
2018-01-11T18:16:47.456Z,29.00
2018-01-11T18:19:14.972Z,27.63
2018-01-11T18:21:42.537Z,27.43
2018-01-11T18:24:10.103Z,30.00
2018-01-11T18:26:38.412Z,28.63
2018-01-11T18:29:05.991Z,27.43
2018-01-11T18:31:33.599Z,24.10
2018-01-11T18:36:43.897Z,26.20
2018-01-11T18:39:11.435Z,26.80
2018-01-11T18:41:38.996Z,29.50
2018-01-11T18:44:06.524Z,28.53
2018-01-11T18:46:34.423Z,23.73
2018-01-11T18:49:02.738Z,28.70
2018-01-11T18:51:30.255Z,30.87
2018-01-11T18:53:57.817Z,31.27
2018-01-11T18:56:25.348Z,30.73
2018-01-11T18:58:52.932Z,30.67
2018-01-11T19:01:20.509Z,27.40
2018-01-11T19:03:48.032Z,34.10
2018-01-11T19:06:15.615Z,33.97
2018-01-11T19:08:43.163Z,30.03
2018-01-11T19:11:10.684Z,27.63
2018-01-11T19:13:38.247Z,35.60
2018-01-11T19:16:05.808Z,31.87
2018-01-11T19:18:33.362Z,32.93
2018-01-11T19:21:00.878Z,28.43
2018-01-11T19:23:28.438Z,33.57
2018-01-11T19:25:56.717Z,32.80
2018-01-11T19:28:24.253Z,31.80
2018-01-11T19:30:51.783Z,30.20
2018-01-11T19:33:19.327Z,30.10
2018-01-11T19:35:46.879Z,32.10
2018-01-11T19:38:14.432Z,31.07
2018-01-11T19:40:42.015Z,31.83
2018-01-11T19:43:09.540Z,29.23
2018-01-11T19:45:37.080Z,28.60
2018-01-11T19:48:05.506Z,28.73
2018-01-11T19:50:33.060Z,29.40
2018-01-11T19:53:00.595Z,26.30
2018-01-11T19:55:28.124Z,29.07
2018-01-11T19:57:55.691Z,26.20
2018-01-11T20:00:23.247Z,32.20
2018-01-11T20:02:50.771Z,30.77
2018-01-11T20:05:18.319Z,29.20
2018-01-11T20:07:45.917Z,34.77
2018-01-11T20:10:13.440Z,33.17
2018-01-11T20:12:41.048Z,29.47
2018-01-11T20:15:08.619Z,32.57
2018-01-11T20:17:36.167Z,33.77
2018-01-11T20:20:04.481Z,31.13
2018-01-11T20:22:32.032Z,28.97
2018-01-11T20:25:00.362Z,32.03
2018-01-11T20:27:27.930Z,32.43
2018-01-11T20:29:55.522Z,35.83
2018-01-11T20:32:23.100Z,35.30
2018-01-11T20:34:50.683Z,32.10
2018-01-11T20:37:18.192Z,34.40
2018-01-11T20:39:45.853Z,34.20
2018-01-11T20:42:13.410Z,30.97
2018-01-11T20:44:40.966Z,30.20
2018-01-11T20:47:08.498Z,31.67
2018-01-11T20:49:36.093Z,31.43
2018-01-11T20:52:03.650Z,32.53
2018-01-11T20:54:31.289Z,40.67
2018-01-11T20:56:58.851Z,31.53
2018-01-11T20:59:26.396Z,33.47
2018-01-11T21:01:54.000Z,28.47
2018-01-11T21:04:21.523Z,28.20
2018-01-11T21:06:49.118Z,33.97
2018-01-11T21:09:16.699Z,28.40
2018-01-11T21:11:44.261Z,30.23
2018-01-11T21:14:11.796Z,27.07
2018-01-11T21:16:39.366Z,32.33
2018-01-11T21:19:06.983Z,29.90
2018-01-11T21:21:34.577Z,30.90
2018-01-11T21:24:02.140Z,28.10
2018-01-11T21:26:30.431Z,29.37
2018-01-11T21:28:57.963Z,29.13
2018-01-11T21:31:25.564Z,24.10
2018-01-11T21:33:53.171Z,29.57
2018-01-11T21:36:20.712Z,29.00
2018-01-11T21:38:48.254Z,27.83
2018-01-11T21:41:15.805Z,26.40
2018-01-11T21:43:43.327Z,26.13
2018-01-11T21:46:10.878Z,23.57
2018-01-11T21:48:38.405Z,29.03
2018-01-11T21:51:06.001Z,24.90
2018-01-11T21:53:33.548Z,24.60
2018-01-11T21:56:01.068Z,24.63
2018-01-11T21:58:28.655Z,30.07
2018-01-11T22:00:56.168Z,25.83
2018-01-11T22:03:23.728Z,24.73
2018-01-11T22:05:51.241Z,24.67
2018-01-11T22:08:18.770Z,26.90
2018-01-11T22:10:46.329Z,24.80
2018-01-11T22:13:13.852Z,27.57
2018-01-11T22:15:41.430Z,27.10
2018-01-11T22:18:08.953Z,26.70
2018-01-11T22:20:36.488Z,26.63
2018-01-11T22:23:04.113Z,28.17
2018-01-11T22:25:31.673Z,27.20
2018-01-11T22:27:59.520Z,27.93
2018-01-11T22:30:27.252Z,23.13
2018-01-11T22:32:55.059Z,29.23
2018-01-11T22:35:22.605Z,25.93
2018-01-11T22:37:50.244Z,30.03
2018-01-11T22:40:17.838Z,24.33
2018-01-11T22:42:45.398Z,24.50
2018-01-11T22:45:13.678Z,26.03
2018-01-11T22:47:41.305Z,26.33
2018-01-11T22:50:08.848Z,25.13
2018-01-11T22:52:36.357Z,26.40
2018-01-11T22:55:03.904Z,21.03
2018-01-11T22:57:32.191Z,25.13
2018-01-11T22:59:59.736Z,22.67
2018-01-11T23:02:28.015Z,23.97
2018-01-11T23:04:55.565Z,27.30
2018-01-11T23:07:23.859Z,25.87
2018-01-11T23:09:51.433Z,21.63
2018-01-11T23:12:18.952Z,24.40
2018-01-11T23:14:46.478Z,22.53
2018-01-11T23:17:14.042Z,27.17
2018-01-11T23:19:41.567Z,23.30
2018-01-11T23:22:09.101Z,23.50
2018-01-11T23:24:36.653Z,25.17
2018-01-11T23:27:04.178Z,22.67
2018-01-11T23:29:31.760Z,24.07
2018-01-11T23:31:59.319Z,22.53
2018-01-11T23:34:26.831Z,24.90
2018-01-11T23:36:54.391Z,21.77
2018-01-11T23:39:21.920Z,20.13
2018-01-11T23:41:49.479Z,18.60
2018-01-11T23:44:17.036Z,23.30
2018-01-11T23:46:44.562Z,22.57
2018-01-11T23:49:12.112Z,20.90
2018-01-11T23:51:39.656Z,24.93
2018-01-11T23:54:07.176Z,21.93
2018-01-11T23:56:35.488Z,24.43
2018-01-11T23:59:03.000Z,21.40
